sensor_id;sensor_type;location;lat;lon;timestamp;P1;durP1;ratioP1;P2;durP2;ratioP2
55150;SDS011;41041;43.162;20.538;2023-09-18T00:01:46;11.10;;;6.68;;
55150;SDS011;41041;43.162;20.538;2023-09-18T00:04:15;9.23;;;6.07;;
55150;SDS011;41041;43.162;20.538;2023-09-18T00:06:41;9.13;;;6.97;;
55150;SDS011;41041;43.162;20.538;2023-09-18T00:09:07;14.77;;;6.60;;
55150;SDS011;41041;43.162;20.538;2023-09-18T00:11:36;9.15;;;5.78;;
55150;SDS011;41041;43.162;20.538;2023-09-18T00:14:07;10.23;;;6.00;;
55150;SDS011;41041;43.162;20.538;2023-09-18T00:16:34;10.25;;;6.22;;
55150;SDS011;41041;43.162;20.538;2023-09-18T00:19:00;11.75;;;6.32;;
55150;SDS011;41041;43.162;20.538;2023-09-18T00:21:28;11.70;;;6.45;;
55150;SDS011;41041;43.162;20.538;2023-09-18T00:23:55;11.90;;;6.18;;
55150;SDS011;41041;43.162;20.538;2023-09-18T00:26:24;10.40;;;6.68;;
55150;SDS011;41041;43.162;20.538;2023-09-18T00:28:50;15.18;;;6.32;;
55150;SDS011;41041;43.162;20.538;2023-09-18T00:31:17;9.40;;;6.00;;
55150;SDS011;41041;43.162;20.538;2023-09-18T00:33:43;9.93;;;5.90;;
55150;SDS011;41041;43.162;20.538;2023-09-18T00:36:08;9.50;;;5.95;;
55150;SDS011;41041;43.162;20.538;2023-09-18T00:38:35;7.90;;;5.68;;
55150;SDS011;41041;43.162;20.538;2023-09-18T00:41:01;9.60;;;6.22;;
55150;SDS011;41041;43.162;20.538;2023-09-18T00:43:28;9.27;;;6.13;;
55150;SDS011;41041;43.162;20.538;2023-09-18T00:45:54;11.68;;;6.00;;
55150;SDS011;41041;43.162;20.538;2023-09-18T00:48:20;9.70;;;6.05;;
55150;SDS011;41041;43.162;20.538;2023-09-18T00:50:46;16.23;;;6.75;;
55150;SDS011;41041;43.162;20.538;2023-09-18T00:53:15;14.65;;;6.47;;
55150;SDS011;41041;43.162;20.538;2023-09-18T00:55:41;9.45;;;6.07;;
55150;SDS011;41041;43.162;20.538;2023-09-18T00:58:08;8.82;;;6.13;;
55150;SDS011;41041;43.162;20.538;2023-09-18T01:00:34;8.15;;;6.45;;
55150;SDS011;41041;43.162;20.538;2023-09-18T01:03:01;10.18;;;6.22;;
55150;SDS011;41041;43.162;20.538;2023-09-18T01:05:30;10.07;;;6.55;;
55150;SDS011;41041;43.162;20.538;2023-09-18T01:07:57;7.07;;;5.70;;
55150;SDS011;41041;43.162;20.538;2023-09-18T01:10:23;9.63;;;6.60;;
55150;SDS011;41041;43.162;20.538;2023-09-18T01:13:27;9.57;;;6.70;;
55150;SDS011;41041;43.162;20.538;2023-09-18T01:16:48;10.30;;;6.90;;
55150;SDS011;41041;43.162;20.538;2023-09-18T01:18:47;10.25;;;6.45;;
55150;SDS011;41041;43.162;20.538;2023-09-18T01:21:14;8.50;;;6.43;;
55150;SDS011;41041;43.162;20.538;2023-09-18T01:23:40;10.65;;;7.13;;
55150;SDS011;41041;43.162;20.538;2023-09-18T01:26:06;9.15;;;6.10;;
55150;SDS011;41041;43.162;20.538;2023-09-18T01:28:33;9.40;;;6.47;;
55150;SDS011;41041;43.162;20.538;2023-09-18T01:30:59;9.07;;;6.32;;
55150;SDS011;41041;43.162;20.538;2023-09-18T01:33:25;13.93;;;6.13;;
55150;SDS011;41041;43.162;20.538;2023-09-18T01:35:52;9.15;;;6.28;;
55150;SDS011;41041;43.162;20.538;2023-09-18T01:38:20;8.23;;;5.82;;
55150;SDS011;41041;43.162;20.538;2023-09-18T01:40:47;9.18;;;6.15;;
55150;SDS011;41041;43.162;20.538;2023-09-18T01:43:13;13.32;;;6.60;;
55150;SDS011;41041;43.162;20.538;2023-09-18T01:45:39;8.40;;;6.20;;
55150;SDS011;41041;43.162;20.538;2023-09-18T01:48:05;11.10;;;6.55;;
55150;SDS011;41041;43.162;20.538;2023-09-18T01:50:34;9.65;;;6.22;;
55150;SDS011;41041;43.162;20.538;2023-09-18T01:53:02;9.52;;;6.07;;
55150;SDS011;41041;43.162;20.538;2023-09-18T01:55:28;8.98;;;6.10;;
55150;SDS011;41041;43.162;20.538;2023-09-18T01:57:55;8.70;;;6.40;;
55150;SDS011;41041;43.162;20.538;2023-09-18T02:00:21;8.10;;;6.30;;
55150;SDS011;41041;43.162;20.538;2023-09-18T02:05:16;10.43;;;6.10;;
55150;SDS011;41041;43.162;20.538;2023-09-18T02:07:42;9.90;;;6.35;;
55150;SDS011;41041;43.162;20.538;2023-09-18T02:10:08;10.43;;;6.43;;
55150;SDS011;41041;43.162;20.538;2023-09-18T02:12:37;9.60;;;5.68;;
55150;SDS011;41041;43.162;20.538;2023-09-18T02:15:04;13.70;;;6.18;;
55150;SDS011;41041;43.162;20.538;2023-09-18T02:17:31;9.85;;;6.05;;
55150;SDS011;41041;43.162;20.538;2023-09-18T02:19:57;9.85;;;5.80;;
55150;SDS011;41041;43.162;20.538;2023-09-18T02:22:31;8.63;;;5.57;;
55150;SDS011;41041;43.162;20.538;2023-09-18T02:24:57;8.20;;;5.72;;
55150;SDS011;41041;43.162;20.538;2023-09-18T02:27:23;8.15;;;5.72;;
55150;SDS011;41041;43.162;20.538;2023-09-18T02:29:49;11.80;;;6.10;;
55150;SDS011;41041;43.162;20.538;2023-09-18T02:32:18;10.13;;;6.47;;
55150;SDS011;41041;43.162;20.538;2023-09-18T02:34:44;11.48;;;6.43;;
55150;SDS011;41041;43.162;20.538;2023-09-18T02:37:10;9.95;;;6.43;;
55150;SDS011;41041;43.162;20.538;2023-09-18T02:39:36;10.90;;;6.00;;
55150;SDS011;41041;43.162;20.538;2023-09-18T02:42:02;10.15;;;6.40;;
55150;SDS011;41041;43.162;20.538;2023-09-18T02:44:29;10.10;;;5.82;;
55150;SDS011;41041;43.162;20.538;2023-09-18T02:46:55;11.50;;;7.15;;
55150;SDS011;41041;43.162;20.538;2023-09-18T02:49:21;14.80;;;7.55;;
55150;SDS011;41041;43.162;20.538;2023-09-18T02:51:47;15.38;;;7.57;;
55150;SDS011;41041;43.162;20.538;2023-09-18T02:54:14;13.75;;;6.80;;
55150;SDS011;41041;43.162;20.538;2023-09-18T02:56:40;11.63;;;7.28;;
55150;SDS011;41041;43.162;20.538;2023-09-18T02:59:06;13.95;;;6.93;;
55150;SDS011;41041;43.162;20.538;2023-09-18T03:01:33;11.65;;;6.75;;
55150;SDS011;41041;43.162;20.538;2023-09-18T03:03:59;12.15;;;6.35;;
55150;SDS011;41041;43.162;20.538;2023-09-18T03:06:26;11.65;;;6.47;;
55150;SDS011;41041;43.162;20.538;2023-09-18T03:08:52;8.55;;;6.05;;
55150;SDS011;41041;43.162;20.538;2023-09-18T03:11:18;10.13;;;5.95;;
55150;SDS011;41041;43.162;20.538;2023-09-18T03:13:44;9.52;;;5.65;;
55150;SDS011;41041;43.162;20.538;2023-09-18T03:16:14;10.85;;;6.20;;
55150;SDS011;41041;43.162;20.538;2023-09-18T03:18:40;10.10;;;5.82;;
55150;SDS011;41041;43.162;20.538;2023-09-18T03:21:06;10.43;;;6.53;;
55150;SDS011;41041;43.162;20.538;2023-09-18T03:23:32;14.65;;;6.35;;
55150;SDS011;41041;43.162;20.538;2023-09-18T03:25:59;23.83;;;7.53;;
55150;SDS011;41041;43.162;20.538;2023-09-18T03:28:25;11.15;;;7.28;;
55150;SDS011;41041;43.162;20.538;2023-09-18T03:30:51;10.60;;;6.60;;
55150;SDS011;41041;43.162;20.538;2023-09-18T03:33:17;15.45;;;6.50;;
55150;SDS011;41041;43.162;20.538;2023-09-18T03:35:47;11.27;;;6.05;;
55150;SDS011;41041;43.162;20.538;2023-09-18T03:40:49;13.85;;;6.93;;
55150;SDS011;41041;43.162;20.538;2023-09-18T03:43:16;10.02;;;6.78;;
55150;SDS011;41041;43.162;20.538;2023-09-18T03:45:42;15.00;;;6.78;;
55150;SDS011;41041;43.162;20.538;2023-09-18T03:48:09;11.15;;;6.63;;
55150;SDS011;41041;43.162;20.538;2023-09-18T03:50:37;10.57;;;7.15;;
55150;SDS011;41041;43.162;20.538;2023-09-18T03:53:03;9.90;;;6.47;;
55150;SDS011;41041;43.162;20.538;2023-09-18T03:55:29;11.57;;;6.57;;
55150;SDS011;41041;43.162;20.538;2023-09-18T03:57:56;12.80;;;6.82;;
55150;SDS011;41041;43.162;20.538;2023-09-18T04:00:22;13.75;;;7.28;;
55150;SDS011;41041;43.162;20.538;2023-09-18T04:02:48;15.77;;;7.07;;
55150;SDS011;41041;43.162;20.538;2023-09-18T04:05:14;11.35;;;7.20;;
55150;SDS011;41041;43.162;20.538;2023-09-18T04:07:40;14.27;;;7.50;;
55150;SDS011;41041;43.162;20.538;2023-09-18T04:10:11;15.05;;;8.40;;
55150;SDS011;41041;43.162;20.538;2023-09-18T04:12:43;14.38;;;8.13;;
55150;SDS011;41041;43.162;20.538;2023-09-18T04:15:12;14.43;;;8.70;;
55150;SDS011;41041;43.162;20.538;2023-09-18T04:17:39;16.48;;;8.93;;
55150;SDS011;41041;43.162;20.538;2023-09-18T04:20:05;14.40;;;8.63;;
55150;SDS011;41041;43.162;20.538;2023-09-18T04:22:31;11.45;;;7.85;;
55150;SDS011;41041;43.162;20.538;2023-09-18T04:24:57;13.25;;;8.38;;
55150;SDS011;41041;43.162;20.538;2023-09-18T04:27:39;12.15;;;8.32;;
55150;SDS011;41041;43.162;20.538;2023-09-18T04:30:06;13.52;;;9.38;;
55150;SDS011;41041;43.162;20.538;2023-09-18T04:32:34;15.63;;;8.55;;
55150;SDS011;41041;43.162;20.538;2023-09-18T04:35:00;14.65;;;8.80;;
55150;SDS011;41041;43.162;20.538;2023-09-18T04:37:26;13.18;;;8.50;;
55150;SDS011;41041;43.162;20.538;2023-09-18T04:39:52;14.98;;;7.80;;
55150;SDS011;41041;43.162;20.538;2023-09-18T04:42:18;20.55;;;9.52;;
55150;SDS011;41041;43.162;20.538;2023-09-18T04:47:30;16.08;;;9.27;;
55150;SDS011;41041;43.162;20.538;2023-09-18T04:49:56;15.82;;;9.07;;
55150;SDS011;41041;43.162;20.538;2023-09-18T04:55:02;15.70;;;9.13;;
55150;SDS011;41041;43.162;20.538;2023-09-18T04:57:30;14.35;;;9.10;;
55150;SDS011;41041;43.162;20.538;2023-09-18T04:59:56;13.27;;;9.50;;
55150;SDS011;41041;43.162;20.538;2023-09-18T05:02:23;17.02;;;9.07;;
55150;SDS011;41041;43.162;20.538;2023-09-18T05:04:50;15.68;;;8.18;;
55150;SDS011;41041;43.162;20.538;2023-09-18T05:07:16;10.55;;;7.57;;
55150;SDS011;41041;43.162;20.538;2023-09-18T05:09:43;13.48;;;8.10;;
55150;SDS011;41041;43.162;20.538;2023-09-18T05:12:09;8.93;;;7.03;;
55150;SDS011;41041;43.162;20.538;2023-09-18T05:14:42;11.40;;;7.57;;
55150;SDS011;41041;43.162;20.538;2023-09-18T05:17:13;9.52;;;7.38;;
55150;SDS011;41041;43.162;20.538;2023-09-18T05:19:40;9.15;;;7.20;;
55150;SDS011;41041;43.162;20.538;2023-09-18T05:22:06;8.50;;;7.25;;
55150;SDS011;41041;43.162;20.538;2023-09-18T05:24:32;9.07;;;6.65;;
55150;SDS011;41041;43.162;20.538;2023-09-18T05:26:58;17.20;;;8.18;;
55150;SDS011;41041;43.162;20.538;2023-09-18T05:29:31;16.25;;;10.35;;
55150;SDS011;41041;43.162;20.538;2023-09-18T05:31:58;17.92;;;10.50;;
55150;SDS011;41041;43.162;20.538;2023-09-18T05:34:24;18.08;;;10.52;;
55150;SDS011;41041;43.162;20.538;2023-09-18T05:37:03;18.80;;;11.43;;
55150;SDS011;41041;43.162;20.538;2023-09-18T05:39:30;19.42;;;10.88;;
55150;SDS011;41041;43.162;20.538;2023-09-18T05:41:56;15.48;;;9.63;;
55150;SDS011;41041;43.162;20.538;2023-09-18T05:46:53;14.20;;;9.87;;
55150;SDS011;41041;43.162;20.538;2023-09-18T05:49:19;21.65;;;9.75;;
55150;SDS011;41041;43.162;20.538;2023-09-18T05:51:45;18.48;;;10.65;;
55150;SDS011;41041;43.162;20.538;2023-09-18T05:54:13;24.15;;;12.07;;
55150;SDS011;41041;43.162;20.538;2023-09-18T05:56:39;22.55;;;12.95;;
55150;SDS011;41041;43.162;20.538;2023-09-18T05:59:06;26.90;;;14.15;;
55150;SDS011;41041;43.162;20.538;2023-09-18T06:01:32;20.92;;;13.60;;
55150;SDS011;41041;43.162;20.538;2023-09-18T06:03:58;24.15;;;13.68;;
55150;SDS011;41041;43.162;20.538;2023-09-18T06:06:24;25.30;;;13.70;;
55150;SDS011;41041;43.162;20.538;2023-09-18T06:08:51;31.45;;;16.05;;
55150;SDS011;41041;43.162;20.538;2023-09-18T06:11:18;26.17;;;15.80;;
55150;SDS011;41041;43.162;20.538;2023-09-18T06:13:45;26.98;;;15.98;;
55150;SDS011;41041;43.162;20.538;2023-09-18T06:16:11;31.48;;;15.02;;
55150;SDS011;41041;43.162;20.538;2023-09-18T06:18:37;31.10;;;17.65;;
55150;SDS011;41041;43.162;20.538;2023-09-18T06:21:04;34.13;;;19.08;;
55150;SDS011;41041;43.162;20.538;2023-09-18T06:23:30;29.83;;;17.45;;
55150;SDS011;41041;43.162;20.538;2023-09-18T06:25:57;26.38;;;15.88;;
55150;SDS011;41041;43.162;20.538;2023-09-18T06:28:24;24.58;;;18.08;;
55150;SDS011;41041;43.162;20.538;2023-09-18T06:30:51;23.85;;;15.27;;
55150;SDS011;41041;43.162;20.538;2023-09-18T06:33:19;15.93;;;11.85;;
55150;SDS011;41041;43.162;20.538;2023-09-18T06:35:45;18.08;;;11.77;;
55150;SDS011;41041;43.162;20.538;2023-09-18T06:38:13;22.25;;;12.55;;
55150;SDS011;41041;43.162;20.538;2023-09-18T06:40:40;22.13;;;14.98;;
55150;SDS011;41041;43.162;20.538;2023-09-18T06:43:06;22.17;;;15.85;;
55150;SDS011;41041;43.162;20.538;2023-09-18T06:45:32;22.73;;;13.52;;
55150;SDS011;41041;43.162;20.538;2023-09-18T06:47:59;19.42;;;13.23;;
55150;SDS011;41041;43.162;20.538;2023-09-18T06:50:28;19.88;;;12.77;;
55150;SDS011;41041;43.162;20.538;2023-09-18T06:52:54;24.48;;;12.73;;
55150;SDS011;41041;43.162;20.538;2023-09-18T06:55:20;24.90;;;12.45;;
55150;SDS011;41041;43.162;20.538;2023-09-18T06:57:47;18.60;;;12.68;;
55150;SDS011;41041;43.162;20.538;2023-09-18T07:00:15;22.42;;;12.80;;
55150;SDS011;41041;43.162;20.538;2023-09-18T07:02:43;24.40;;;12.50;;
55150;SDS011;41041;43.162;20.538;2023-09-18T07:05:09;19.40;;;11.57;;
55150;SDS011;41041;43.162;20.538;2023-09-18T07:07:35;19.08;;;11.88;;
55150;SDS011;41041;43.162;20.538;2023-09-18T07:10:02;18.30;;;11.95;;
55150;SDS011;41041;43.162;20.538;2023-09-18T07:12:28;20.52;;;11.35;;
55150;SDS011;41041;43.162;20.538;2023-09-18T07:14:54;25.45;;;12.35;;
55150;SDS011;41041;43.162;20.538;2023-09-18T07:17:20;16.13;;;10.02;;
55150;SDS011;41041;43.162;20.538;2023-09-18T07:19:46;21.63;;;10.43;;
55150;SDS011;41041;43.162;20.538;2023-09-18T07:22:12;21.70;;;10.50;;
55150;SDS011;41041;43.162;20.538;2023-09-18T07:24:38;19.30;;;9.82;;
55150;SDS011;41041;43.162;20.538;2023-09-18T07:27:07;18.15;;;10.23;;
55150;SDS011;41041;43.162;20.538;2023-09-18T07:29:33;22.73;;;10.40;;
55150;SDS011;41041;43.162;20.538;2023-09-18T07:32:00;20.13;;;11.40;;
55150;SDS011;41041;43.162;20.538;2023-09-18T07:34:26;17.92;;;10.68;;
55150;SDS011;41041;43.162;20.538;2023-09-18T07:36:53;20.92;;;10.50;;
55150;SDS011;41041;43.162;20.538;2023-09-18T07:39:20;21.90;;;9.93;;
55150;SDS011;41041;43.162;20.538;2023-09-18T07:41:48;14.35;;;9.07;;
55150;SDS011;41041;43.162;20.538;2023-09-18T07:44:20;19.38;;;8.95;;
55150;SDS011;41041;43.162;20.538;2023-09-18T07:46:46;17.42;;;8.52;;
55150;SDS011;41041;43.162;20.538;2023-09-18T07:49:12;12.15;;;8.73;;
55150;SDS011;41041;43.162;20.538;2023-09-18T07:51:39;13.95;;;8.30;;
55150;SDS011;41041;43.162;20.538;2023-09-18T07:54:06;15.07;;;7.90;;
55150;SDS011;41041;43.162;20.538;2023-09-18T07:56:32;10.82;;;7.20;;
55150;SDS011;41041;43.162;20.538;2023-09-18T07:58:59;13.15;;;7.05;;
55150;SDS011;41041;43.162;20.538;2023-09-18T08:01:26;11.35;;;6.97;;
55150;SDS011;41041;43.162;20.538;2023-09-18T08:03:52;9.48;;;6.38;;
55150;SDS011;41041;43.162;20.538;2023-09-18T08:06:19;10.07;;;6.32;;
55150;SDS011;41041;43.162;20.538;2023-09-18T08:08:46;12.02;;;6.95;;
55150;SDS011;41041;43.162;20.538;2023-09-18T08:11:13;9.10;;;6.03;;
55150;SDS011;41041;43.162;20.538;2023-09-18T08:13:39;11.38;;;6.45;;
55150;SDS011;41041;43.162;20.538;2023-09-18T08:16:05;8.95;;;6.28;;
55150;SDS011;41041;43.162;20.538;2023-09-18T08:18:32;10.18;;;6.35;;
55150;SDS011;41041;43.162;20.538;2023-09-18T08:20:58;9.35;;;6.03;;
55150;SDS011;41041;43.162;20.538;2023-09-18T08:23:25;10.75;;;6.53;;
55150;SDS011;41041;43.162;20.538;2023-09-18T08:25:51;10.20;;;5.82;;
55150;SDS011;41041;43.162;20.538;2023-09-18T08:28:35;7.75;;;6.43;;
55150;SDS011;41041;43.162;20.538;2023-09-18T08:31:03;9.23;;;6.05;;
55150;SDS011;41041;43.162;20.538;2023-09-18T08:33:30;9.40;;;6.38;;
55150;SDS011;41041;43.162;20.538;2023-09-18T08:38:40;7.85;;;5.80;;
55150;SDS011;41041;43.162;20.538;2023-09-18T08:41:09;11.82;;;6.38;;
55150;SDS011;41041;43.162;20.538;2023-09-18T08:43:35;7.90;;;5.85;;
55150;SDS011;41041;43.162;20.538;2023-09-18T08:46:03;8.50;;;5.90;;
55150;SDS011;41041;43.162;20.538;2023-09-18T08:48:29;10.82;;;5.53;;
55150;SDS011;41041;43.162;20.538;2023-09-18T08:51:01;11.98;;;6.45;;
55150;SDS011;41041;43.162;20.538;2023-09-18T08:53:33;9.50;;;5.70;;
55150;SDS011;41041;43.162;20.538;2023-09-18T08:56:00;10.57;;;6.30;;
55150;SDS011;41041;43.162;20.538;2023-09-18T08:58:34;7.25;;;5.75;;
55150;SDS011;41041;43.162;20.538;2023-09-18T09:01:06;9.85;;;5.85;;
55150;SDS011;41041;43.162;20.538;2023-09-18T09:03:43;9.05;;;6.15;;
55150;SDS011;41041;43.162;20.538;2023-09-18T09:06:12;8.02;;;5.75;;
55150;SDS011;41041;43.162;20.538;2023-09-18T09:08:38;8.80;;;5.75;;
55150;SDS011;41041;43.162;20.538;2023-09-18T09:11:05;8.65;;;5.50;;
55150;SDS011;41041;43.162;20.538;2023-09-18T09:13:31;8.35;;;5.78;;
55150;SDS011;41041;43.162;20.538;2023-09-18T09:15:59;129.77;;;68.15;;
55150;SDS011;41041;43.162;20.538;2023-09-18T09:18:28;57.97;;;32.92;;
55150;SDS011;41041;43.162;20.538;2023-09-18T09:20:58;29.10;;;17.65;;
55150;SDS011;41041;43.162;20.538;2023-09-18T09:23:29;11.88;;;7.18;;
55150;SDS011;41041;43.162;20.538;2023-09-18T09:26:15;10.00;;;5.97;;
55150;SDS011;41041;43.162;20.538;2023-09-18T09:28:42;8.93;;;5.68;;
55150;SDS011;41041;43.162;20.538;2023-09-18T09:31:08;8.68;;;5.22;;
55150;SDS011;41041;43.162;20.538;2023-09-18T09:33:36;9.63;;;6.50;;
55150;SDS011;41041;43.162;20.538;2023-09-18T09:36:05;9.13;;;7.30;;
55150;SDS011;41041;43.162;20.538;2023-09-18T09:38:32;12.68;;;6.03;;
55150;SDS011;41041;43.162;20.538;2023-09-18T09:41:02;9.35;;;6.15;;
55150;SDS011;41041;43.162;20.538;2023-09-18T09:43:32;7.65;;;5.97;;
55150;SDS011;41041;43.162;20.538;2023-09-18T09:45:59;11.88;;;6.50;;
55150;SDS011;41041;43.162;20.538;2023-09-18T09:48:25;8.70;;;5.40;;
55150;SDS011;41041;43.162;20.538;2023-09-18T09:50:52;8.55;;;5.45;;
55150;SDS011;41041;43.162;20.538;2023-09-18T09:53:22;7.13;;;5.40;;
55150;SDS011;41041;43.162;20.538;2023-09-18T09:56:06;6.35;;;5.28;;
55150;SDS011;41041;43.162;20.538;2023-09-18T09:58:33;9.40;;;5.47;;
55150;SDS011;41041;43.162;20.538;2023-09-18T10:01:02;7.45;;;5.10;;
55150;SDS011;41041;43.162;20.538;2023-09-18T10:03:36;6.85;;;5.40;;
55150;SDS011;41041;43.162;20.538;2023-09-18T10:06:04;7.70;;;5.18;;
55150;SDS011;41041;43.162;20.538;2023-09-18T10:08:31;6.65;;;5.15;;
55150;SDS011;41041;43.162;20.538;2023-09-18T10:11:05;6.60;;;4.93;;
55150;SDS011;41041;43.162;20.538;2023-09-18T10:13:41;7.30;;;5.10;;
55150;SDS011;41041;43.162;20.538;2023-09-18T10:16:18;9.35;;;4.90;;
55150;SDS011;41041;43.162;20.538;2023-09-18T10:26:35;6.38;;;5.05;;
55150;SDS011;41041;43.162;20.538;2023-09-18T10:29:03;7.18;;;4.95;;
55150;SDS011;41041;43.162;20.538;2023-09-18T10:31:31;6.25;;;4.80;;
55150;SDS011;41041;43.162;20.538;2023-09-18T10:33:59;7.00;;;5.00;;
55150;SDS011;41041;43.162;20.538;2023-09-18T10:39:12;7.13;;;4.53;;
55150;SDS011;41041;43.162;20.538;2023-09-18T10:41:38;6.22;;;4.45;;
55150;SDS011;41041;43.162;20.538;2023-09-18T10:44:06;10.63;;;4.80;;
55150;SDS011;41041;43.162;20.538;2023-09-18T10:46:33;8.75;;;4.70;;
55150;SDS011;41041;43.162;20.538;2023-09-18T10:49:00;6.63;;;4.70;;
55150;SDS011;41041;43.162;20.538;2023-09-18T10:51:28;6.53;;;4.60;;
55150;SDS011;41041;43.162;20.538;2023-09-18T10:53:56;7.20;;;4.40;;
55150;SDS011;41041;43.162;20.538;2023-09-18T10:56:23;7.30;;;4.55;;
55150;SDS011;41041;43.162;20.538;2023-09-18T10:58:57;5.68;;;4.20;;
55150;SDS011;41041;43.162;20.538;2023-09-18T11:01:24;7.20;;;4.43;;
55150;SDS011;41041;43.162;20.538;2023-09-18T11:03:52;6.70;;;4.28;;
55150;SDS011;41041;43.162;20.538;2023-09-18T11:06:18;6.35;;;4.38;;
55150;SDS011;41041;43.162;20.538;2023-09-18T11:08:49;9.23;;;4.20;;
55150;SDS011;41041;43.162;20.538;2023-09-18T11:11:18;9.60;;;4.15;;
55150;SDS011;41041;43.162;20.538;2023-09-18T11:13:51;5.28;;;3.78;;
55150;SDS011;41041;43.162;20.538;2023-09-18T11:21:49;6.32;;;3.65;;
55150;SDS011;41041;43.162;20.538;2023-09-18T11:24:33;6.75;;;4.03;;
55150;SDS011;41041;43.162;20.538;2023-09-18T11:29:44;8.25;;;4.20;;
55150;SDS011;41041;43.162;20.538;2023-09-18T11:32:12;6.47;;;4.10;;
55150;SDS011;41041;43.162;20.538;2023-09-18T11:34:45;6.97;;;4.10;;
55150;SDS011;41041;43.162;20.538;2023-09-18T11:37:22;5.47;;;3.35;;
55150;SDS011;41041;43.162;20.538;2023-09-18T11:39:50;10.32;;;3.75;;
55150;SDS011;41041;43.162;20.538;2023-09-18T11:45:01;10.30;;;3.30;;
55150;SDS011;41041;43.162;20.538;2023-09-18T11:47:28;7.15;;;3.30;;
55150;SDS011;41041;43.162;20.538;2023-09-18T11:49:59;5.57;;;3.30;;
55150;SDS011;41041;43.162;20.538;2023-09-18T11:52:26;6.15;;;3.47;;
55150;SDS011;41041;43.162;20.538;2023-09-18T11:54:53;7.20;;;3.78;;
55150;SDS011;41041;43.162;20.538;2023-09-18T11:57:19;13.07;;;3.55;;
55150;SDS011;41041;43.162;20.538;2023-09-18T11:59:52;11.60;;;3.60;;
55150;SDS011;41041;43.162;20.538;2023-09-18T12:02:27;5.13;;;3.15;;
55150;SDS011;41041;43.162;20.538;2023-09-18T12:05:04;7.32;;;3.25;;
55150;SDS011;41041;43.162;20.538;2023-09-18T12:09:56;5.68;;;3.78;;
55150;SDS011;41041;43.162;20.538;2023-09-18T12:12:22;7.65;;;3.80;;
55150;SDS011;41041;43.162;20.538;2023-09-18T12:14:51;8.20;;;3.58;;
55150;SDS011;41041;43.162;20.538;2023-09-18T12:20:00;8.48;;;3.85;;
55150;SDS011;41041;43.162;20.538;2023-09-18T12:22:29;7.38;;;3.50;;
55150;SDS011;41041;43.162;20.538;2023-09-18T12:25:10;7.43;;;3.65;;
55150;SDS011;41041;43.162;20.538;2023-09-18T12:30:22;6.13;;;3.55;;
55150;SDS011;41041;43.162;20.538;2023-09-18T12:32:49;7.15;;;3.70;;
55150;SDS011;41041;43.162;20.538;2023-09-18T12:35:15;8.30;;;3.70;;
55150;SDS011;41041;43.162;20.538;2023-09-18T12:37:43;10.05;;;3.75;;
55150;SDS011;41041;43.162;20.538;2023-09-18T12:42:48;7.38;;;3.63;;
55150;SDS011;41041;43.162;20.538;2023-09-18T12:45:14;9.20;;;3.55;;
55150;SDS011;41041;43.162;20.538;2023-09-18T12:47:40;6.60;;;3.15;;
55150;SDS011;41041;43.162;20.538;2023-09-18T12:50:07;6.45;;;3.65;;
55150;SDS011;41041;43.162;20.538;2023-09-18T12:52:35;6.18;;;3.53;;
55150;SDS011;41041;43.162;20.538;2023-09-18T12:55:01;6.90;;;3.60;;
55150;SDS011;41041;43.162;20.538;2023-09-18T13:00:20;7.15;;;3.50;;
55150;SDS011;41041;43.162;20.538;2023-09-18T13:02:51;6.07;;;3.70;;
55150;SDS011;41041;43.162;20.538;2023-09-18T13:05:20;6.80;;;3.60;;
55150;SDS011;41041;43.162;20.538;2023-09-18T13:07:50;6.38;;;3.42;;
55150;SDS011;41041;43.162;20.538;2023-09-18T13:10:16;8.30;;;3.70;;
55150;SDS011;41041;43.162;20.538;2023-09-18T13:12:43;8.00;;;3.60;;
55150;SDS011;41041;43.162;20.538;2023-09-18T13:15:09;10.98;;;3.20;;
55150;SDS011;41041;43.162;20.538;2023-09-18T13:17:44;6.47;;;3.08;;
55150;SDS011;41041;43.162;20.538;2023-09-18T13:20:22;7.30;;;3.55;;
55150;SDS011;41041;43.162;20.538;2023-09-18T13:22:54;7.15;;;3.10;;
55150;SDS011;41041;43.162;20.538;2023-09-18T13:25:24;6.45;;;3.53;;
55150;SDS011;41041;43.162;20.538;2023-09-18T13:27:58;12.43;;;3.95;;
55150;SDS011;41041;43.162;20.538;2023-09-18T13:30:24;6.88;;;3.80;;
55150;SDS011;41041;43.162;20.538;2023-09-18T13:32:50;8.60;;;3.80;;
55150;SDS011;41041;43.162;20.538;2023-09-18T13:35:17;7.65;;;3.80;;
55150;SDS011;41041;43.162;20.538;2023-09-18T13:37:44;9.60;;;4.55;;
55150;SDS011;41041;43.162;20.538;2023-09-18T13:40:10;12.32;;;3.80;;
55150;SDS011;41041;43.162;20.538;2023-09-18T13:42:39;8.48;;;3.92;;
55150;SDS011;41041;43.162;20.538;2023-09-18T13:45:06;9.00;;;3.42;;
55150;SDS011;41041;43.162;20.538;2023-09-18T13:47:32;8.25;;;3.72;;
55150;SDS011;41041;43.162;20.538;2023-09-18T13:52:38;9.60;;;3.92;;
55150;SDS011;41041;43.162;20.538;2023-09-18T13:55:04;9.30;;;3.78;;
55150;SDS011;41041;43.162;20.538;2023-09-18T13:57:33;8.20;;;4.10;;
55150;SDS011;41041;43.162;20.538;2023-09-18T14:00:00;9.15;;;3.60;;
55150;SDS011;41041;43.162;20.538;2023-09-18T14:02:26;7.63;;;3.55;;
55150;SDS011;41041;43.162;20.538;2023-09-18T14:08:02;11.20;;;4.18;;
55150;SDS011;41041;43.162;20.538;2023-09-18T14:10:29;10.43;;;4.00;;
55150;SDS011;41041;43.162;20.538;2023-09-18T14:12:55;9.45;;;3.78;;
55150;SDS011;41041;43.162;20.538;2023-09-18T14:15:22;8.93;;;3.67;;
55150;SDS011;41041;43.162;20.538;2023-09-18T14:17:48;9.50;;;4.00;;
55150;SDS011;41041;43.162;20.538;2023-09-18T14:20:14;9.32;;;3.95;;
55150;SDS011;41041;43.162;20.538;2023-09-18T14:22:43;12.85;;;3.85;;
55150;SDS011;41041;43.162;20.538;2023-09-18T14:25:09;11.52;;;4.13;;
55150;SDS011;41041;43.162;20.538;2023-09-18T14:27:36;8.95;;;3.78;;
55150;SDS011;41041;43.162;20.538;2023-09-18T14:30:05;7.90;;;4.13;;
55150;SDS011;41041;43.162;20.538;2023-09-18T14:32:32;7.32;;;4.00;;
55150;SDS011;41041;43.162;20.538;2023-09-18T14:34:58;8.75;;;3.78;;
55150;SDS011;41041;43.162;20.538;2023-09-18T14:37:27;13.60;;;4.28;;
55150;SDS011;41041;43.162;20.538;2023-09-18T14:39:54;9.07;;;4.22;;
55150;SDS011;41041;43.162;20.538;2023-09-18T14:42:20;8.60;;;3.85;;
55150;SDS011;41041;43.162;20.538;2023-09-18T14:44:45;8.90;;;3.85;;
55150;SDS011;41041;43.162;20.538;2023-09-18T14:47:11;9.82;;;4.07;;
55150;SDS011;41041;43.162;20.538;2023-09-18T14:49:37;8.73;;;3.67;;
55150;SDS011;41041;43.162;20.538;2023-09-18T14:52:04;9.15;;;4.22;;
55150;SDS011;41041;43.162;20.538;2023-09-18T14:54:30;6.93;;;3.83;;
55150;SDS011;41041;43.162;20.538;2023-09-18T14:57:05;11.95;;;3.95;;
55150;SDS011;41041;43.162;20.538;2023-09-18T14:59:31;6.45;;;3.75;;
55150;SDS011;41041;43.162;20.538;2023-09-18T15:01:57;7.55;;;3.67;;
55150;SDS011;41041;43.162;20.538;2023-09-18T15:04:26;10.02;;;3.90;;
55150;SDS011;41041;43.162;20.538;2023-09-18T15:06:52;10.75;;;4.55;;
55150;SDS011;41041;43.162;20.538;2023-09-18T15:09:18;8.35;;;4.07;;
55150;SDS011;41041;43.162;20.538;2023-09-18T15:11:44;10.80;;;4.05;;
55150;SDS011;41041;43.162;20.538;2023-09-18T15:14:09;9.18;;;4.10;;
55150;SDS011;41041;43.162;20.538;2023-09-18T15:16:36;8.30;;;4.25;;
55150;SDS011;41041;43.162;20.538;2023-09-18T15:19:02;10.18;;;4.00;;
55150;SDS011;41041;43.162;20.538;2023-09-18T15:21:31;8.65;;;3.83;;
55150;SDS011;41041;43.162;20.538;2023-09-18T15:23:57;8.45;;;4.10;;
55150;SDS011;41041;43.162;20.538;2023-09-18T15:26:23;10.13;;;3.90;;